Time;durP1;ratioP1;P1;durP2;ratioP2;P2;SDS_P1;SDS_P2;PMS_P1;PMS_P2;Temp;Humidity;BMP_temperature;BMP_pressure;BME280_temperature;BME280_humidity;BME280_pressure;Samples;Min_cycle;Max_cycle;Signal;HPM_P1;HPM_P2
2022/06/16 00:00:30;;;;;;;2.57;2.37;;;16.20;99.90;;;;;;5002397;28;20691;-50
2022/06/16 00:02:57;;;;;;;2.30;2.10;;;16.10;99.90;;;;;;5002225;28;20773;-48
2022/06/16 00:05:28;;;;;;;3.40;2.33;;;16.00;99.90;;;;;;5002273;28;20476;-49
2022/06/16 00:07:56;;;;;;;2.90;2.50;;;16.00;99.90;;;;;;5001966;28;20433;-50
2022/06/16 00:10:24;;;;;;;4.30;2.50;;;15.90;99.90;;;;;;4999379;28;20527;-48
2022/06/16 00:12:51;;;;;;;4.00;2.27;;;15.80;99.90;;;;;;5001502;28;20433;-51
2022/06/16 00:15:22;;;;;;;2.97;2.60;;;15.90;99.90;;;;;;5001931;28;20456;-48
2022/06/16 00:17:50;;;;;;;2.33;2.13;;;15.90;99.90;;;;;;5002071;28;20636;-52
2022/06/16 00:20:17;;;;;;;2.70;2.43;;;15.90;99.90;;;;;;5002042;28;20499;-48
2022/06/16 00:22:45;;;;;;;3.55;2.85;;;15.90;99.90;;;;;;5001673;28;20417;-48
2022/06/16 00:25:13;;;;;;;2.87;2.47;;;15.80;99.90;;;;;;5002023;28;20289;-48
2022/06/16 00:27:42;;;;;;;3.33;2.87;;;15.80;99.90;;;;;;5001973;28;20507;-45
2022/06/16 00:30:11;;;;;;;4.57;3.50;;;15.70;99.90;;;;;;5001867;28;20446;-51
2022/06/16 00:32:42;;;;;;;4.17;2.90;;;15.60;99.90;;;;;;5001744;28;20445;-51
2022/06/16 00:35:11;;;;;;;3.87;2.60;;;15.60;99.90;;;;;;5001436;28;20467;-53
2022/06/16 00:37:39;;;;;;;4.13;2.63;;;15.60;99.90;;;;;;5000974;28;20488;-51
2022/06/16 00:40:08;;;;;;;8.23;2.70;;;15.60;99.90;;;;;;5001733;28;20481;-52
2022/06/16 00:42:36;;;;;;;3.77;2.47;;;15.50;99.90;;;;;;5001788;28;20445;-48
2022/06/16 00:45:42;;;;;;;2.43;2.23;;;15.50;99.90;;;;;;5001560;28;20454;-51
2022/06/16 00:48:15;;;;;;;3.50;3.20;;;15.40;99.90;;;;;;4996963;28;20450;-47
2022/06/16 00:50:47;;;;;;;4.30;2.70;;;15.50;99.90;;;;;;5001992;28;20437;-50
2022/06/16 00:53:15;;;;;;;3.10;2.77;;;15.40;99.90;;;;;;5001761;28;20656;-47
2022/06/16 00:55:42;;;;;;;5.00;2.93;;;15.30;99.90;;;;;;5001112;28;20488;-52
2022/06/16 00:58:09;;;;;;;5.60;3.40;;;15.30;99.90;;;;;;5001567;28;20458;-50
2022/06/16 01:00:45;;;;;;;4.67;3.40;;;15.30;99.90;;;;;;5001292;28;20480;-48
2022/06/16 01:04:51;;;;;;;3.53;3.23;;;15.20;99.90;;;;;;5001480;28;20459;-48
2022/06/16 01:06:20;;;;;;;8.53;3.20;;;15.20;99.90;;;;;;4995625;28;20495;-51
2022/06/16 01:08:51;;;;;;;3.17;2.60;;;15.20;99.90;;;;;;5001485;28;20408;-50
2022/06/16 01:14:57;;;;;;;3.80;3.50;;;15.10;99.90;;;;;;4995583;28;20849;-52
2022/06/16 01:17:53;;;;;;;2.90;2.65;;;15.00;99.90;;;;;;4997855;28;20490;-53
2022/06/16 01:20:30;;;;;;;3.33;3.03;;;15.00;99.90;;;;;;5001383;28;20543;-49
2022/06/16 01:23:38;;;;;;;6.80;3.20;;;15.00;99.90;;;;;;4994280;28;20212;-49
2022/06/16 01:26:34;;;;;;;4.03;3.28;;;15.00;99.90;;;;;;4996040;28;20286;-50
2022/06/16 01:29:29;;;;;;;4.53;3.78;;;15.00;99.90;;;;;;5000224;28;20551;-48
2022/06/16 01:32:14;;;;;;;4.88;3.20;;;14.90;99.90;;;;;;5000726;28;20205;-47
2022/06/16 01:35:26;;;;;;;4.05;3.30;;;14.90;99.90;;;;;;5000423;28;20226;-47
2022/06/16 01:38:05;;;;;;;3.57;3.20;;;14.80;99.90;;;;;;4991741;28;20198;-47
2022/06/16 01:41:01;;;;;;;3.90;3.17;;;14.80;99.90;;;;;;5001267;28;20483;-46
2022/06/16 01:43:36;;;;;;;4.03;2.90;;;14.70;99.90;;;;;;4999660;28;20528;-48
2022/06/16 01:46:15;;;;;;;3.38;3.08;;;14.70;99.90;;;;;;5000070;28;20518;-47
2022/06/16 01:48:47;;;;;;;4.45;3.55;;;14.70;99.90;;;;;;4999221;28;20204;-49
2022/06/16 01:51:31;;;;;;;4.32;3.45;;;14.60;99.90;;;;;;5000353;28;20277;-51
2022/06/16 01:54:09;;;;;;;5.03;3.50;;;14.70;99.90;;;;;;4994344;28;20201;-52
2022/06/16 01:56:51;;;;;;;7.00;3.50;;;14.70;99.90;;;;;;4998882;28;20203;-47
2022/06/16 01:59:25;;;;;;;4.18;3.17;;;14.70;99.90;;;;;;5000859;28;20421;-54
2022/06/16 02:01:57;;;;;;;4.75;3.30;;;14.60;99.90;;;;;;4992301;28;20200;-51
2022/06/16 02:04:31;;;;;;;5.43;3.05;;;14.50;99.90;;;;;;5000037;28;20241;-51
2022/06/16 02:07:03;;;;;;;4.47;3.78;;;14.50;99.90;;;;;;4999547;28;20214;-49
2022/06/16 02:09:37;;;;;;;6.35;4.10;;;14.50;99.90;;;;;;5000404;28;20208;-49
2022/06/16 02:12:07;;;;;;;4.38;3.97;;;14.60;99.90;;;;;;5000432;28;20216;-51
2022/06/16 02:14:40;;;;;;;5.80;3.00;;;14.70;99.90;;;;;;4999828;28;20393;-50
2022/06/16 02:17:09;;;;;;;3.78;3.45;;;14.70;99.90;;;;;;5000418;28;20285;-49
2022/06/16 02:19:36;;;;;;;4.40;3.70;;;14.90;99.90;;;;;;4999836;28;20228;-46
2022/06/16 02:22:04;;;;;;;7.72;3.90;;;15.00;99.90;;;;;;5000416;28;20198;-50
2022/06/16 02:24:31;;;;;;;7.13;4.03;;;15.00;99.90;;;;;;4999766;28;20281;-45
2022/06/16 02:27:00;;;;;;;6.70;4.47;;;15.10;99.90;;;;;;5000162;28;20451;-50
2022/06/16 02:29:37;;;;;;;5.78;4.43;;;15.10;99.90;;;;;;4999538;28;20435;-52
2022/06/16 02:32:32;;;;;;;4.50;4.10;;;15.10;99.90;;;;;;5000452;28;20243;-49
2022/06/16 02:35:45;;;;;;;4.53;3.95;;;15.20;99.90;;;;;;4994878;28;20639;-45
2022/06/16 02:38:22;;;;;;;5.87;3.87;;;15.30;99.90;;;;;;4999746;28;20279;-49
2022/06/16 02:41:04;;;;;;;6.13;4.30;;;15.20;99.90;;;;;;4993125;28;20495;-48
2022/06/16 02:44:02;;;;;;;5.10;4.10;;;15.20;99.90;;;;;;4998229;28;20448;-48
2022/06/16 02:46:59;;;;;;;3.67;3.37;;;15.20;99.90;;;;;;5000263;28;20752;-50
2022/06/16 02:49:34;;;;;;;5.20;4.10;;;15.30;99.90;;;;;;4999979;28;20752;-50
2022/06/16 02:52:26;;;;;;;4.70;4.30;;;15.30;99.90;;;;;;4999849;28;20519;-50
2022/06/16 02:55:16;;;;;;;6.20;4.20;;;15.20;99.90;;;;;;4996887;28;20460;-51
2022/06/16 02:57:50;;;;;;;7.37;4.00;;;15.20;99.90;;;;;;4999628;28;20438;-49
2022/06/16 03:00:43;;;;;;;5.50;3.67;;;15.10;99.90;;;;;;4999837;28;20481;-49
2022/06/16 03:03:26;;;;;;;14.30;5.63;;;15.10;99.90;;;;;;4994742;28;20441;-49
2022/06/16 03:05:55;;;;;;;7.80;4.50;;;15.10;99.90;;;;;;4991449;28;20496;-47
2022/06/16 03:08:28;;;;;;;7.68;4.28;;;15.10;99.90;;;;;;4998938;28;20213;-49
2022/06/16 03:10:58;;;;;;;5.23;4.73;;;15.10;99.90;;;;;;4999632;28;20550;-46
2022/06/16 03:13:29;;;;;;;6.27;5.53;;;15.20;99.90;;;;;;4999117;28;20721;-50
2022/06/16 03:15:58;;;;;;;5.37;3.80;;;15.40;99.90;;;;;;4999525;28;20640;-50
2022/06/16 03:18:26;;;;;;;5.30;4.50;;;15.20;99.90;;;;;;5003553;28;20569;-48
2022/06/16 03:20:54;;;;;;;5.53;4.18;;;15.20;99.90;;;;;;4996278;28;20228;-54
2022/06/16 03:23:24;;;;;;;5.65;3.95;;;15.20;99.90;;;;;;5003778;28;20231;-51
2022/06/16 03:25:52;;;;;;;7.73;4.90;;;15.40;99.90;;;;;;5001975;28;20411;-54
2022/06/16 03:28:20;;;;;;;7.47;4.40;;;15.70;99.90;;;;;;5003345;28;20445;-49
2022/06/16 03:30:47;;;;;;;7.80;4.80;;;15.90;99.90;;;;;;5000654;28;20630;-49
2022/06/16 03:33:14;;;;;;;5.50;4.87;;;16.20;99.90;;;;;;5003666;28;20439;-50
2022/06/16 03:35:43;;;;;;;5.43;4.97;;;16.40;99.90;;;;;;5002619;28;20626;-53
2022/06/16 03:38:22;;;;;;;5.03;4.60;;;16.80;99.90;;;;;;5002913;28;20531;-47
2022/06/16 03:40:49;;;;;;;8.40;4.80;;;17.10;99.90;;;;;;4999251;28;20479;-50
2022/06/16 03:43:16;;;;;;;5.30;4.67;;;17.10;99.90;;;;;;5003064;28;20431;-52
2022/06/16 03:45:44;;;;;;;5.23;4.37;;;17.00;99.90;;;;;;5002597;28;20437;-54
2022/06/16 03:48:12;;;;;;;6.03;4.97;;;17.10;99.90;;;;;;5002866;28;20809;-51
2022/06/16 03:50:40;;;;;;;5.37;4.93;;;16.90;99.90;;;;;;5002576;28;20459;-52
2022/06/16 03:53:08;;;;;;;3.60;3.30;;;16.70;99.90;;;;;;5002972;28;20453;-51
2022/06/16 03:55:35;;;;;;;5.23;4.70;;;16.70;99.90;;;;;;5002741;28;20463;-51
2022/06/16 03:58:03;;;;;;;5.83;4.97;;;16.80;99.90;;;;;;5002653;28;20435;-50
2022/06/16 04:00:31;;;;;;;5.30;4.80;;;16.70;99.90;;;;;;5000467;28;20675;-51
2022/06/16 04:05:44;;;;;;;6.33;4.70;;;16.50;99.90;;;;;;5001687;28;20463;-48
2022/06/16 04:08:12;;;;;;;7.93;5.20;;;16.50;99.90;;;;;;5002553;28;20765;-50
2022/06/16 04:10:40;;;;;;;6.90;4.60;;;16.50;99.90;;;;;;5002006;28;20454;-49
2022/06/16 04:13:07;;;;;;;4.07;3.73;;;16.80;99.90;;;;;;5002543;28;20435;-51
2022/06/16 04:15:38;;;;;;;9.63;4.77;;;17.10;99.90;;;;;;5001896;28;20466;-48
2022/06/16 04:18:06;;;;;;;4.97;4.23;;;17.40;99.90;;;;;;5002062;28;20493;-49
2022/06/16 04:20:34;;;;;;;6.00;4.53;;;17.50;99.90;;;;;;5002246;28;20504;-52
2022/06/16 04:23:01;;;;;;;4.87;4.40;;;17.60;99.90;;;;;;5002192;28;20466;-51
2022/06/16 04:25:33;;;;;;;7.30;6.60;;;17.50;99.90;;;;;;5001913;28;20482;-48
2022/06/16 04:28:03;;;;;;;5.57;4.30;;;17.60;99.90;;;;;;5001220;28;20439;-50
2022/06/16 04:30:31;;;;;;;5.73;5.20;;;17.60;99.90;;;;;;5008755;28;20687;-47
2022/06/16 04:32:59;;;;;;;6.77;4.90;;;17.40;99.90;;;;;;5001838;28;20446;-50
2022/06/16 04:35:27;;;;;;;4.97;4.47;;;17.60;99.90;;;;;;5002099;28;20448;-52
2022/06/16 04:37:54;;;;;;;6.73;5.73;;;17.70;99.90;;;;;;4994884;28;20445;-52
2022/06/16 04:40:21;;;;;;;4.70;4.17;;;17.70;99.90;;;;;;5002015;28;20456;-47
2022/06/16 04:42:49;;;;;;;7.13;4.43;;;17.90;99.90;;;;;;5001428;28;20448;-50
2022/06/16 04:45:16;;;;;;;5.90;4.30;;;18.20;99.90;;;;;;5001350;28;20526;-50
2022/06/16 04:47:43;;;;;;;9.23;5.23;;;18.30;99.90;;;;;;5001837;28;20447;-51
2022/06/16 04:50:13;;;;;;;6.13;4.27;;;18.10;99.90;;;;;;5001537;28;20451;-49
2022/06/16 04:52:41;;;;;;;6.63;5.00;;;17.90;99.90;;;;;;5001587;28;20482;-52
2022/06/16 04:55:09;;;;;;;7.03;4.57;;;17.70;99.90;;;;;;5001623;28;20775;-48
2022/06/16 04:57:38;;;;;;;6.43;5.23;;;17.60;99.90;;;;;;5001350;28;20582;-52
2022/06/16 05:00:08;;;;;;;5.33;4.83;;;17.70;99.90;;;;;;5001461;28;20539;-49
2022/06/16 05:02:51;;;;;;;5.90;4.83;;;17.90;99.90;;;;;;4993546;28;20503;-50
2022/06/16 05:05:19;;;;;;;4.90;4.17;;;18.00;99.90;;;;;;5001104;28;20445;-53
2022/06/16 05:07:47;;;;;;;5.77;5.13;;;18.10;99.90;;;;;;5001059;28;20431;-47
2022/06/16 05:10:14;;;;;;;4.93;4.53;;;18.30;99.90;;;;;;5001422;28;20486;-50
2022/06/16 05:12:42;;;;;;;7.60;5.07;;;18.50;99.90;;;;;;5000866;28;20494;-51
2022/06/16 05:15:09;;;;;;;5.53;4.63;;;18.90;99.90;;;;;;4997978;28;20473;-53
2022/06/16 05:17:37;;;;;;;7.00;4.53;;;19.20;99.90;;;;;;5000079;28;20447;-53
2022/06/16 05:20:05;;;;;;;5.37;4.53;;;19.20;99.90;;;;;;4997910;28;20475;-50
2022/06/16 05:22:33;;;;;;;6.90;5.20;;;19.40;99.90;;;;;;4997611;28;20439;-48
2022/06/16 05:25:01;;;;;;;5.40;3.97;;;19.60;99.90;;;;;;4995061;28;20784;-49
2022/06/16 05:27:28;;;;;;;8.00;4.60;;;19.90;99.90;;;;;;4997141;28;20436;-52
2022/06/16 05:29:55;;;;;;;5.57;3.93;;;19.90;99.90;;;;;;4997853;28;20439;-48
2022/06/16 05:32:23;;;;;;;5.53;4.70;;;20.00;99.90;;;;;;4995495;28;20466;-52
2022/06/16 05:34:50;;;;;;;8.80;3.87;;;20.20;99.90;;;;;;4997513;28;20459;-54
2022/06/16 05:37:18;;;;;;;4.97;4.47;;;20.50;99.90;;;;;;4994080;28;20753;-51
2022/06/16 05:39:47;;;;;;;4.40;4.00;;;20.80;99.90;;;;;;4997506;28;20439;-49
2022/06/16 05:42:16;;;;;;;4.30;4.00;;;21.10;99.90;;;;;;4993200;28;20418;-49
2022/06/16 05:44:44;;;;;;;5.53;4.30;;;21.30;99.90;;;;;;4997604;28;20463;-49
2022/06/16 05:47:11;;;;;;;3.73;3.50;;;21.20;99.90;;;;;;4995808;28;20459;-50
2022/06/16 05:49:40;;;;;;;5.87;3.57;;;21.30;99.90;;;;;;4996438;28;20417;-48
2022/06/16 05:52:13;;;;;;;3.60;3.30;;;21.40;99.90;;;;;;4997739;28;20421;-50
2022/06/16 05:54:42;;;;;;;6.33;4.17;;;21.30;99.90;;;;;;4999806;28;20455;-52
2022/06/16 05:57:10;;;;;;;3.43;3.13;;;21.20;99.90;;;;;;5000209;28;20811;-50
2022/06/16 05:59:38;;;;;;;4.23;3.50;;;21.20;99.90;;;;;;4999723;28;20417;-50
2022/06/16 06:02:13;;;;;;;3.70;3.10;;;21.30;99.90;;;;;;4999930;28;20492;-51
2022/06/16 06:04:41;;;;;;;3.90;3.50;;;21.40;99.90;;;;;;4999986;28;20657;-48
2022/06/16 06:07:10;;;;;;;3.90;3.60;;;21.50;99.90;;;;;;4998274;28;20412;-53
2022/06/16 06:18:21;;;;;;;3.70;3.40;;;22.60;99.90;;;;;;4995927;28;20418;-52
2022/06/16 06:20:48;;;;;;;5.50;3.33;;;23.30;99.90;;;;;;4999197;28;20456;-53
2022/06/16 06:23:16;;;;;;;3.50;3.10;;;23.70;99.90;;;;;;4999610;28;20434;-51
2022/06/16 06:25:44;;;;;;;6.27;4.30;;;24.00;99.90;;;;;;4999333;28;20442;-48
2022/06/16 06:28:18;;;;;;;3.03;2.80;;;24.40;99.90;;;;;;4999963;28;20490;-49
2022/06/16 06:30:45;;;;;;;2.83;2.63;;;24.90;99.90;;;;;;4996348;28;20732;-51
2022/06/16 06:33:12;;;;;;;4.67;2.90;;;25.20;99.90;;;;;;4999626;28;20675;-49
2022/06/16 06:35:39;;;;;;;2.63;2.20;;;25.60;99.90;;;;;;4995870;28;20461;-51
2022/06/16 06:38:07;;;;;;;3.30;3.10;;;25.70;99.90;;;;;;4998256;28;20441;-54
2022/06/16 06:40:36;;;;;;;2.90;2.70;;;25.60;99.90;;;;;;4998882;28;20458;-48
2022/06/16 06:43:04;;;;;;;3.00;2.63;;;25.60;99.90;;;;;;5000251;28;20654;-52
2022/06/16 06:45:32;;;;;;;3.00;2.80;;;25.60;99.90;;;;;;4999593;28;20819;-48
2022/06/16 06:48:01;;;;;;;3.10;2.37;;;26.10;99.90;;;;;;4999219;28;20498;-52
2022/06/16 06:50:36;;;;;;;3.30;3.00;;;27.40;99.90;;;;;;4999769;28;20503;-48
2022/06/16 06:53:03;;;;;;;3.97;3.27;;;28.20;99.90;;;;;;5002275;28;20447;-52
2022/06/16 06:55:31;;;;;;;3.30;2.90;;;28.30;99.90;;;;;;5003050;28;20549;-51
2022/06/16 06:57:58;;;;;;;3.30;2.90;;;28.20;99.90;;;;;;5002839;28;21023;-53
2022/06/16 07:00:27;;;;;;;4.30;3.23;;;28.10;99.90;;;;;;5002890;28;20656;-55
2022/06/16 07:02:54;;;;;;;4.13;3.20;;;28.10;99.90;;;;;;5003703;28;20466;-54
2022/06/16 07:05:22;;;;;;;2.13;2.03;;;28.60;99.90;;;;;;5003560;28;20462;-50
2022/06/16 07:07:50;;;;;;;3.03;2.77;;;28.90;99.90;;;;;;5003475;28;20776;-54
2022/06/16 07:10:18;;;;;;;3.47;2.40;;;29.40;99.90;;;;;;5003472;28;20443;-54
2022/06/16 07:12:46;;;;;;;3.00;2.70;;;31.40;99.90;;;;;;5003519;28;20434;-55
2022/06/16 07:15:14;;;;;;;3.70;3.40;;;34.00;95.60;;;;;;5002400;28;20461;-55
2022/06/16 07:17:41;;;;;;;3.07;2.77;;;34.60;92.30;;;;;;5003193;28;20461;-53
2022/06/16 07:20:15;;;;;;;2.60;2.33;;;34.10;91.50;;;;;;5003338;28;20753;-52
2022/06/16 07:22:47;;;;;;;4.93;2.20;;;33.70;91.10;;;;;;4998440;28;20478;-53
2022/06/16 07:25:16;;;;;;;2.33;2.23;;;33.70;90.60;;;;;;5003257;28;20466;-53
2022/06/16 07:27:43;;;;;;;3.67;3.40;;;34.60;88.70;;;;;;5002823;28;20514;-53
2022/06/16 07:30:14;;;;;;;3.30;3.10;;;36.10;81.40;;;;;;5000343;28;20442;-54
2022/06/16 07:32:42;;;;;;;5.30;2.83;;;36.20;78.60;;;;;;5002061;28;20443;-52
2022/06/16 07:35:13;;;;;;;2.60;2.40;;;35.40;80.10;;;;;;5002733;28;20448;-53
2022/06/16 07:37:40;;;;;;;5.20;4.70;;;34.30;81.60;;;;;;5002466;28;20431;-50
2022/06/16 07:40:09;;;;;;;7.57;6.10;;;32.70;86.60;;;;;;5002840;28;20444;-54
2022/06/16 07:42:36;;;;;;;3.30;3.00;;;32.30;89.00;;;;;;5002766;28;20471;-56
2022/06/16 07:45:04;;;;;;;6.73;3.47;;;32.30;89.30;;;;;;5002559;28;20447;-55
2022/06/16 07:47:32;;;;;;;3.63;2.57;;;32.60;86.50;;;;;;5002467;28;20435;-54
2022/06/16 07:50:04;;;;;;;3.07;2.87;;;32.20;87.50;;;;;;5002452;28;20427;-51
2022/06/16 07:52:31;;;;;;;3.77;3.10;;;31.70;89.50;;;;;;5002724;28;20495;-52
2022/06/16 07:54:59;;;;;;;4.60;3.30;;;31.10;89.50;;;;;;5002219;28;20456;-55
2022/06/16 07:57:27;;;;;;;20.63;16.47;;;30.60;90.70;;;;;;5002839;28;20665;-55
2022/06/16 07:59:57;;;;;;;3.50;3.30;;;30.30;91.60;;;;;;5002254;28;20437;-55
2022/06/16 08:02:28;;;;;;;5.23;3.87;;;29.60;93.10;;;;;;5002050;28;20492;-54
2022/06/16 08:04:58;;;;;;;2.90;2.70;;;29.30;93.80;;;;;;4997265;28;20822;-55
2022/06/16 08:07:26;;;;;;;3.50;2.67;;;28.80;94.90;;;;;;5001591;28;20487;-52
2022/06/16 08:09:53;;;;;;;3.00;2.80;;;28.40;97.20;;;;;;5002115;28;20452;-51
2022/06/16 08:12:21;;;;;;;5.03;2.90;;;28.30;97.10;;;;;;4999600;28;20573;-50
2022/06/16 08:14:49;;;;;;;7.60;3.43;;;28.40;96.90;;;;;;5001753;28;20837;-54
2022/06/16 08:17:26;;;;;;;5.50;2.40;;;28.80;96.80;;;;;;4998739;28;20486;-53
2022/06/16 08:19:55;;;;;;;2.30;2.10;;;29.40;95.80;;;;;;5002312;28;20435;-52
2022/06/16 08:22:23;;;;;;;5.23;2.80;;;30.50;94.80;;;;;;5001891;28;20771;-52
2022/06/16 08:24:50;;;;;;;3.47;3.27;;;32.30;92.60;;;;;;5001364;28;20504;-54
2022/06/16 08:27:31;;;;;;;2.30;2.20;;;35.60;84.70;;;;;;5001539;28;20436;-55
2022/06/16 08:30:01;;;;;;;3.00;2.53;;;38.40;75.90;;;;;;5001741;28;20435;-48
2022/06/16 08:32:31;;;;;;;3.50;3.20;;;39.80;67.30;;;;;;5001597;28;20519;-54
2022/06/16 08:34:59;;;;;;;4.43;2.80;;;38.50;66.50;;;;;;5001933;28;20824;-56
2022/06/16 08:37:34;;;;;;;3.23;2.77;;;36.90;69.70;;;;;;5001474;28;20444;-51
2022/06/16 08:40:02;;;;;;;3.50;3.20;;;35.10;73.70;;;;;;5001551;28;20466;-54
2022/06/16 08:42:50;;;;;;;3.77;3.47;;;33.90;77.70;;;;;;5000802;28;20503;-52
2022/06/16 08:45:41;;;;;;;3.07;2.77;;;32.80;80.10;;;;;;5001076;28;20456;-54
2022/06/16 08:48:12;;;;;;;3.47;3.17;;;34.10;78.30;;;;;;4996046;28;20974;-56
2022/06/16 08:50:48;;;;;;;3.00;2.60;;;37.20;70.60;;;;;;5001190;28;20439;-53
2022/06/16 08:53:30;;;;;;;3.70;2.90;;;39.10;66.40;;;;;;5001016;28;20571;-55
2022/06/16 08:56:10;;;;;;;2.27;2.10;;;41.30;60.10;;;;;;4996413;28;20603;-56
2022/06/16 08:58:52;;;;;;;3.77;3.27;;;42.40;56.80;;;;;;5001170;28;20435;-56
2022/06/16 09:01:49;;;;;;;3.33;3.03;;;42.40;54.80;;;;;;5015916;28;20475;-56
2022/06/16 09:04:29;;;;;;;3.50;3.20;;;43.00;53.20;;;;;;4992132;28;20476;-55
2022/06/16 09:07:13;;;;;;;2.60;2.40;;;41.70;53.00;;;;;;4998434;28;20438;-56
2022/06/16 09:10:15;;;;;;;2.57;2.37;;;40.40;54.10;;;;;;5000681;28;20754;-53
2022/06/16 09:12:58;;;;;;;4.50;3.67;;;39.30;56.00;;;;;;5000276;28;20437;-55
2022/06/16 09:16:05;;;;;;;6.00;2.40;;;37.70;57.60;;;;;;5000438;28;20462;-55
2022/06/16 09:18:54;;;;;;;2.03;1.93;;;37.10;59.00;;;;;;5000431;28;20455;-52
2022/06/16 09:21:53;;;;;;;3.43;3.13;;;36.50;59.40;;;;;;5000623;28;20475;-55
2022/06/16 09:24:40;;;;;;;4.33;3.17;;;36.40;59.60;;;;;;4938180;28;20759;-54
2022/06/16 09:27:20;;;;;;;3.90;3.60;;;36.40;60.00;;;;;;4997064;28;20569;-52
2022/06/16 09:30:08;;;;;;;2.97;2.70;;;35.90;61.00;;;;;;4993023;28;20484;-53
2022/06/16 09:32:57;;;;;;;5.63;5.03;;;34.90;62.10;;;;;;5000556;28;20446;-54
2022/06/16 09:35:51;;;;;;;2.83;2.63;;;34.50;62.90;;;;;;5000766;28;20471;-55
2022/06/16 09:38:29;;;;;;;5.90;4.10;;;34.40;63.30;;;;;;4996322;28;20439;-55
2022/06/16 09:42:32;;;;;;;3.33;3.03;;;33.70;63.80;;;;;;4997334;28;20441;-52
2022/06/16 09:43:58;;;;;;;5.63;3.70;;;32.70;64.90;;;;;;5000112;28;20773;-56
2022/06/16 09:46:32;;;;;;;2.87;2.67;;;32.00;66.80;;;;;;5000821;28;20530;-55
2022/06/16 09:49:04;;;;;;;2.80;2.60;;;31.90;68.00;;;;;;4999941;28;20437;-50
2022/06/16 09:51:54;;;;;;;2.73;2.53;;;32.00;67.20;;;;;;4998071;28;20442;-54
2022/06/16 09:54:34;;;;;;;4.50;2.67;;;31.10;68.70;;;;;;5000091;28;20483;-52
2022/06/16 09:57:11;;;;;;;3.70;2.33;;;31.30;68.80;;;;;;5000489;28;20417;-55
2022/06/16 09:59:42;;;;;;;2.87;2.60;;;31.20;68.60;;;;;;5000269;28;20449;-55
2022/06/16 10:02:23;;;;;;;3.73;2.93;;;31.80;69.10;;;;;;4999986;28;20528;-53
2022/06/16 10:04:53;;;;;;;1.93;1.83;;;32.30;68.30;;;;;;4996395;28;20467;-53
2022/06/16 10:07:27;;;;;;;2.57;2.37;;;32.20;67.10;;;;;;4996747;28;20439;-52
2022/06/16 10:10:24;;;;;;;3.07;2.87;;;31.40;67.00;;;;;;4991266;28;20418;-49
2022/06/16 10:13:14;;;;;;;3.13;2.83;;;31.30;67.70;;;;;;4995126;28;20473;-55
2022/06/16 10:15:51;;;;;;;5.00;2.30;;;31.30;68.90;;;;;;4993674;28;20475;-53
2022/06/16 10:18:20;;;;;;;2.10;2.00;;;31.60;69.00;;;;;;4993426;28;20443;-56
2022/06/16 10:20:47;;;;;;;5.43;2.63;;;31.40;69.30;;;;;;4994392;28;20500;-54
2022/06/16 10:23:29;;;;;;;3.13;2.80;;;31.20;69.40;;;;;;4995297;28;20537;-55
2022/06/16 10:26:01;;;;;;;2.13;2.03;;;30.60;68.70;;;;;;4998148;28;20466;-53
2022/06/16 10:28:49;;;;;;;3.20;3.00;;;30.40;69.10;;;;;;4998847;28;20743;-54
2022/06/16 10:31:43;;;;;;;2.60;2.40;;;30.00;70.30;;;;;;4996047;28;20716;-51
2022/06/16 10:34:24;;;;;;;3.83;2.93;;;29.50;70.90;;;;;;4999336;28;20406;-52
2022/06/16 10:37:06;;;;;;;2.70;2.50;;;29.70;71.00;;;;;;4994763;28;20427;-54
2022/06/16 10:39:46;;;;;;;2.47;2.27;;;29.80;70.50;;;;;;4999640;28;20767;-48
2022/06/16 10:42:21;;;;;;;3.90;2.93;;;29.50;72.40;;;;;;4999850;28;20457;-51
2022/06/16 10:44:59;;;;;;;2.67;2.37;;;29.60;72.20;;;;;;4991917;28;20534;-52
2022/06/16 10:47:40;;;;;;;3.33;2.17;;;29.50;73.00;;;;;;4999639;28;20515;-55
2022/06/16 10:50:18;;;;;;;3.87;2.57;;;29.70;71.30;;;;;;5000241;28;20431;-52
2022/06/16 10:52:57;;;;;;;3.37;2.17;;;30.30;71.60;;;;;;4999211;28;20428;-50
2022/06/16 10:55:29;;;;;;;2.93;2.20;;;31.00;69.40;;;;;;4999291;28;20611;-52
2022/06/16 10:58:05;;;;;;;2.30;2.03;;;31.00;68.10;;;;;;4999074;28;20623;-56
2022/06/16 11:00:35;;;;;;;2.57;2.37;;;30.70;69.40;;;;;;4999457;28;20758;-51
2022/06/16 11:03:10;;;;;;;2.63;2.20;;;30.50;69.60;;;;;;4999195;28;20459;-54
2022/06/16 11:05:51;;;;;;;2.47;2.27;;;30.80;70.20;;;;;;4998408;28;20545;-55
2022/06/16 11:08:19;;;;;;;3.33;2.60;;;31.40;68.10;;;;;;4999154;28;20567;-51
2022/06/16 11:11:09;;;;;;;2.07;1.97;;;31.00;66.80;;;;;;4994239;28;20438;-51
2022/06/16 11:13:43;;;;;;;2.90;2.70;;;30.70;67.70;;;;;;4998806;28;20526;-52
2022/06/16 11:16:27;;;;;;;2.10;2.00;;;30.50;69.30;;;;;;4999215;28;20766;-52
2022/06/16 11:18:58;;;;;;;2.53;2.37;;;30.20;68.50;;;;;;4996898;28;20793;-54
2022/06/16 11:21:30;;;;;;;4.27;2.67;;;30.10;69.10;;;;;;4999147;28;20448;-51
2022/06/16 11:24:01;;;;;;;3.20;2.00;;;30.00;70.80;;;;;;4997859;28;20429;-55
2022/06/16 11:26:34;;;;;;;2.67;2.47;;;30.00;71.20;;;;;;4998292;28;20462;-51
2022/06/16 11:29:11;;;;;;;3.40;3.07;;;30.00;71.50;;;;;;4993944;28;20504;-51
2022/06/16 11:31:48;;;;;;;2.93;2.73;;;30.30;72.00;;;;;;4998958;28;20489;-55
2022/06/16 11:34:30;;;;;;;4.73;2.70;;;30.70;70.50;;;;;;4997194;28;20452;-57
2022/06/16 11:37:09;;;;;;;2.70;2.50;;;31.00;68.80;;;;;;4999187;28;20436;-54
2022/06/16 11:40:03;;;;;;;4.40;2.77;;;31.20;67.50;;;;;;5001397;28;20445;-56
2022/06/16 11:43:02;;;;;;;3.40;2.27;;;31.00;68.30;;;;;;5002431;28;20551;-53
2022/06/16 11:45:41;;;;;;;16.33;2.77;;;30.60;69.00;;;;;;5002657;28;20530;-53
2022/06/16 11:48:20;;;;;;;3.30;3.03;;;30.10;71.00;;;;;;4997703;28;20494;-52
2022/06/16 11:51:05;;;;;;;3.10;2.37;;;29.60;72.40;;;;;;5002364;28;20784;-53
2022/06/16 11:53:45;;;;;;;4.83;2.80;;;28.80;74.20;;;;;;5002004;28;20737;-53
2022/06/16 11:56:51;;;;;;;2.30;2.10;;;28.10;77.70;;;;;;5002088;28;20459;-52
2022/06/16 11:59:42;;;;;;;8.53;2.60;;;27.40;81.00;;;;;;5002178;28;20502;-48
2022/06/16 12:02:31;;;;;;;3.23;2.80;;;26.80;86.60;;;;;;5001747;28;20477;-52
2022/06/16 12:05:34;;;;;;;5.13;2.70;;;26.30;92.90;;;;;;4996795;28;20478;-52
2022/06/16 12:08:28;;;;;;;2.50;2.23;;;25.70;96.40;;;;;;4996072;28;20438;-54
2022/06/16 12:11:03;;;;;;;4.37;2.73;;;25.90;97.60;;;;;;4994927;28;20694;-54
2022/06/16 12:13:52;;;;;;;3.40;2.33;;;26.10;93.80;;;;;;5001933;28;20419;-55
2022/06/16 12:16:26;;;;;;;2.33;2.13;;;26.10;93.10;;;;;;5001218;28;20446;-52
2022/06/16 12:19:09;;;;;;;2.33;2.17;;;25.70;92.00;;;;;;4999245;28;20439;-52
2022/06/16 12:21:39;;;;;;;2.10;2.00;;;25.40;91.30;;;;;;5001084;28;20420;-56
2022/06/16 12:24:12;;;;;;;2.50;2.30;;;25.20;91.30;;;;;;5001563;28;20410;-55
2022/06/16 12:27:19;;;;;;;2.30;1.97;;;24.90;91.50;;;;;;5000927;28;20410;-55
2022/06/16 12:29:58;;;;;;;1.70;1.60;;;24.70;93.90;;;;;;4984427;28;20740;-49
2022/06/16 12:32:50;;;;;;;3.50;2.50;;;24.50;95.40;;;;;;5001247;28;20410;-53
2022/06/16 12:35:45;;;;;;;3.00;2.77;;;24.30;96.20;;;;;;5001822;28;20497;-55
2022/06/16 12:38:24;;;;;;;2.80;2.10;;;24.20;96.80;;;;;;4999641;28;20424;-54
2022/06/16 12:41:14;;;;;;;2.77;2.57;;;23.90;97.10;;;;;;5001222;28;20417;-53
2022/06/16 12:43:50;;;;;;;2.47;2.27;;;24.00;97.60;;;;;;4992336;28;20477;-52
2022/06/16 12:46:51;;;;;;;3.07;2.77;;;24.20;98.10;;;;;;5001265;28;20418;-50
2022/06/16 12:49:29;;;;;;;2.50;2.30;;;24.10;99.00;;;;;;5000629;28;20410;-50
2022/06/16 12:52:07;;;;;;;4.53;2.50;;;24.20;99.90;;;;;;5001267;28;20427;-51
2022/06/16 12:55:01;;;;;;;2.70;2.50;;;24.10;99.90;;;;;;5000505;28;20462;-52
2022/06/16 12:57:40;;;;;;;3.00;2.80;;;24.20;99.90;;;;;;4998933;28;20430;-50
2022/06/16 13:00:21;;;;;;;2.67;2.47;;;24.40;99.90;;;;;;5000485;28;20406;-52
2022/06/16 13:03:05;;;;;;;3.00;2.70;;;24.80;99.80;;;;;;4993979;28;20485;-54
2022/06/16 13:05:36;;;;;;;2.63;2.43;;;25.30;99.20;;;;;;5000534;28;20470;-51
2022/06/16 13:08:05;;;;;;;3.63;3.30;;;25.30;98.80;;;;;;5000961;28;20417;-49
2022/06/16 13:10:48;;;;;;;3.10;2.87;;;25.40;99.10;;;;;;5001120;28;20732;-53
2022/06/16 13:13:45;;;;;;;3.23;2.67;;;25.50;98.60;;;;;;5001240;28;20425;-49
2022/06/16 13:16:24;;;;;;;2.53;2.33;;;25.60;97.50;;;;;;5001094;28;20811;-52
2022/06/16 13:19:04;;;;;;;2.60;2.40;;;25.70;97.50;;;;;;4998300;28;20445;-53
2022/06/16 13:21:39;;;;;;;4.10;2.53;;;25.80;97.80;;;;;;5001603;28;20417;-48
2022/06/16 13:24:23;;;;;;;2.87;2.50;;;25.80;96.20;;;;;;5001199;28;20431;-49
2022/06/16 13:27:06;;;;;;;2.20;1.87;;;25.90;94.90;;;;;;4994770;28;20432;-50
2022/06/16 13:30:05;;;;;;;2.33;2.13;;;25.90;94.00;;;;;;4999418;28;20440;-49
2022/06/16 13:33:05;;;;;;;2.50;2.30;;;26.00;94.70;;;;;;5001056;28;20471;-51
2022/06/16 13:35:42;;;;;;;4.00;1.80;;;26.10;94.00;;;;;;5000985;28;20482;-51
2022/06/16 13:38:09;;;;;;;1.90;1.80;;;26.10;94.00;;;;;;5001215;28;20757;-50
2022/06/16 13:40:41;;;;;;;2.80;2.50;;;25.90;93.20;;;;;;5000984;28;20583;-50
2022/06/16 13:43:10;;;;;;;2.97;2.77;;;26.10;93.20;;;;;;5001237;28;20442;-54